Time;durP1;ratioP1;P1;durP2;ratioP2;P2;SDS_P1;SDS_P2;PMS_P1;PMS_P2;Temp;Humidity;BMP_temperature;BMP_pressure;BME280_temperature;BME280_humidity;BME280_pressure;Samples;Min_cycle;Max_cycle;Signal;HPM_P1;HPM_P2
2024/01/14 00:00:50;;;;;;;93.97;49.57;;;;;;;;;;4321751;32;320439;-82
2024/01/14 00:03:17;;;;;;;103.97;51.57;;;;;;;;;;4327564;32;318711;-80
2024/01/14 00:05:45;;;;;;;126.17;62.70;;;;;;;;;;4333263;32;319693;-82
2024/01/14 00:08:12;;;;;;;136.03;71.17;;;;;;;;;;4319795;32;419852;-81
2024/01/14 00:10:40;;;;;;;151.77;72.70;;;;;;;;;;4332187;32;318626;-81
2024/01/14 00:13:11;;;;;;;153.90;75.53;;;;;;;;;;4316190;32;320658;-81
2024/01/14 00:15:39;;;;;;;173.67;89.83;;;;;;;;;;4327545;32;320488;-81
2024/01/14 00:18:06;;;;;;;218.20;105.10;;;;;;;;;;4323556;33;320316;-81
2024/01/14 00:20:34;;;;;;;206.53;104.93;;;;;;;;;;4332528;33;321951;-80
2024/01/14 00:23:01;;;;;;;226.50;107.97;;;;;;;;;;4315290;32;321022;-81
2024/01/14 00:25:29;;;;;;;235.03;110.90;;;;;;;;;;4333280;32;319765;-81
2024/01/14 00:27:58;;;;;;;230.93;110.07;;;;;;;;;;4323688;32;321491;-80
2024/01/14 00:30:26;;;;;;;226.83;111.67;;;;;;;;;;4343172;32;319380;-80
2024/01/14 00:32:54;;;;;;;231.30;109.40;;;;;;;;;;4334968;32;319978;-81
2024/01/14 00:35:24;;;;;;;219.70;108.00;;;;;;;;;;4349582;32;319170;-80
2024/01/14 00:37:51;;;;;;;226.57;108.43;;;;;;;;;;4335266;32;321769;-81
2024/01/14 00:40:20;;;;;;;194.03;99.43;;;;;;;;;;4411343;32;320813;-81
2024/01/14 00:42:46;;;;;;;180.53;89.30;;;;;;;;;;4403339;32;320145;-81
2024/01/14 00:45:16;;;;;;;193.70;90.70;;;;;;;;;;4405091;32;319138;-81
2024/01/14 00:47:43;;;;;;;131.60;70.07;;;;;;;;;;4403357;32;320417;-81
2024/01/14 00:50:10;;;;;;;124.50;65.43;;;;;;;;;;4324341;33;320578;-81
2024/01/14 00:52:38;;;;;;;122.13;63.10;;;;;;;;;;4334955;32;320297;-81
2024/01/14 00:55:08;;;;;;;147.87;73.27;;;;;;;;;;4332777;32;318461;-80
2024/01/14 00:57:36;;;;;;;160.00;77.87;;;;;;;;;;4343088;32;320960;-81
2024/01/14 01:00:08;;;;;;;163.50;79.97;;;;;;;;;;4340445;32;319755;-81
2024/01/14 01:02:38;;;;;;;200.07;93.07;;;;;;;;;;4349770;32;319915;-81
2024/01/14 01:05:05;;;;;;;210.30;102.13;;;;;;;;;;4334101;32;318932;-80
2024/01/14 01:07:35;;;;;;;222.00;104.23;;;;;;;;;;4336260;32;346361;-81
2024/01/14 01:10:03;;;;;;;215.57;100.40;;;;;;;;;;4323632;32;321474;-81
2024/01/14 01:12:31;;;;;;;215.57;99.30;;;;;;;;;;4335890;32;320922;-81
2024/01/14 01:14:58;;;;;;;183.70;91.20;;;;;;;;;;4319922;32;320520;-81
2024/01/14 01:17:25;;;;;;;198.20;97.87;;;;;;;;;;4334760;32;320429;-81
2024/01/14 01:19:56;;;;;;;188.67;97.73;;;;;;;;;;4325024;32;320714;-81
2024/01/14 01:22:24;;;;;;;180.33;88.63;;;;;;;;;;4334964;33;320680;-81
2024/01/14 01:24:51;;;;;;;172.80;82.93;;;;;;;;;;4325140;33;353143;-81
2024/01/14 01:27:19;;;;;;;158.50;81.33;;;;;;;;;;4331769;32;319859;-80
2024/01/14 01:29:46;;;;;;;143.93;75.70;;;;;;;;;;4335503;33;319745;-81
2024/01/14 01:32:13;;;;;;;129.13;68.77;;;;;;;;;;4323629;32;420881;-81
2024/01/14 01:34:39;;;;;;;124.10;63.77;;;;;;;;;;4334732;32;319050;-81
2024/01/14 01:37:09;;;;;;;100.87;54.50;;;;;;;;;;4315451;32;319909;-79
2024/01/14 01:39:37;;;;;;;88.03;50.80;;;;;;;;;;4326207;32;320423;-79
2024/01/14 01:42:06;;;;;;;107.60;55.80;;;;;;;;;;4323504;32;344393;-81
2024/01/14 01:44:34;;;;;;;113.83;56.73;;;;;;;;;;4335055;32;319962;-81
2024/01/14 01:47:04;;;;;;;115.63;61.70;;;;;;;;;;4315536;32;319846;-79
2024/01/14 01:49:31;;;;;;;120.97;55.60;;;;;;;;;;4346278;32;319849;-79
2024/01/14 01:52:03;;;;;;;85.80;45.27;;;;;;;;;;4389464;32;320637;-81
2024/01/14 01:54:33;;;;;;;94.93;46.97;;;;;;;;;;4368250;32;319364;-80
2024/01/14 01:57:01;;;;;;;98.17;48.47;;;;;;;;;;4318834;32;318723;-80
2024/01/14 01:59:28;;;;;;;103.07;52.77;;;;;;;;;;4333764;32;319463;-80
2024/01/14 02:01:56;;;;;;;108.53;54.10;;;;;;;;;;4324874;32;319798;-80
2024/01/14 02:04:25;;;;;;;113.80;61.10;;;;;;;;;;4334510;32;320227;-80
2024/01/14 02:06:52;;;;;;;117.73;60.30;;;;;;;;;;4323997;32;320621;-80
2024/01/14 02:09:19;;;;;;;106.90;56.53;;;;;;;;;;4333103;32;319713;-80
2024/01/14 02:11:48;;;;;;;106.17;57.50;;;;;;;;;;4324203;32;320789;-80
2024/01/14 02:14:15;;;;;;;108.93;52.83;;;;;;;;;;4335134;32;320022;-80
2024/01/14 02:16:44;;;;;;;115.33;62.27;;;;;;;;;;4334559;32;320540;-80
2024/01/14 02:19:11;;;;;;;128.97;69.10;;;;;;;;;;4314089;32;418400;-80
2024/01/14 02:21:43;;;;;;;130.97;68.80;;;;;;;;;;4334673;32;320660;-80
2024/01/14 02:24:22;;;;;;;126.77;65.70;;;;;;;;;;4324467;32;319763;-81
2024/01/14 02:26:49;;;;;;;139.87;68.33;;;;;;;;;;4325108;32;320231;-79
2024/01/14 02:29:16;;;;;;;129.13;64.10;;;;;;;;;;4328018;32;319570;-79
2024/01/14 02:31:44;;;;;;;123.97;64.47;;;;;;;;;;4333878;32;319626;-79
2024/01/14 02:34:14;;;;;;;128.17;65.37;;;;;;;;;;4321672;32;420168;-80
2024/01/14 02:36:43;;;;;;;120.10;63.00;;;;;;;;;;4333093;32;322446;-80
2024/01/14 02:39:10;;;;;;;97.90;53.93;;;;;;;;;;4313038;32;342552;-80
2024/01/14 02:41:39;;;;;;;108.73;56.37;;;;;;;;;;4335555;32;319586;-79
2024/01/14 02:44:06;;;;;;;96.43;51.10;;;;;;;;;;4325354;32;320196;-80
2024/01/14 02:46:34;;;;;;;99.30;51.47;;;;;;;;;;4333758;32;319096;-80
2024/01/14 02:49:01;;;;;;;104.73;53.93;;;;;;;;;;4318715;32;319245;-80
2024/01/14 02:51:27;;;;;;;108.90;53.13;;;;;;;;;;4333616;32;320483;-80
2024/01/14 02:53:54;;;;;;;100.53;57.37;;;;;;;;;;4330164;32;320034;-80
2024/01/14 02:56:21;;;;;;;103.60;53.83;;;;;;;;;;4349353;32;320257;-81
2024/01/14 02:58:49;;;;;;;111.63;59.00;;;;;;;;;;4342149;32;320322;-80
2024/01/14 03:01:16;;;;;;;132.50;66.73;;;;;;;;;;4358125;32;319542;-78
2024/01/14 03:03:43;;;;;;;126.50;64.80;;;;;;;;;;4364282;32;318719;-78
2024/01/14 03:06:10;;;;;;;118.23;62.40;;;;;;;;;;4349885;32;318345;-80
2024/01/14 03:08:37;;;;;;;116.23;61.37;;;;;;;;;;4347175;32;319270;-78
2024/01/14 03:11:05;;;;;;;125.50;65.93;;;;;;;;;;4317948;32;320784;-78
2024/01/14 03:13:32;;;;;;;133.60;67.47;;;;;;;;;;4333893;32;319427;-78
2024/01/14 03:16:00;;;;;;;130.47;64.43;;;;;;;;;;4325087;32;320472;-78
2024/01/14 03:18:28;;;;;;;119.70;63.97;;;;;;;;;;4334382;32;320268;-78
2024/01/14 03:20:57;;;;;;;109.50;55.53;;;;;;;;;;4320673;32;319789;-79
2024/01/14 03:23:23;;;;;;;91.07;50.53;;;;;;;;;;4333224;32;319563;-79
2024/01/14 03:25:50;;;;;;;103.60;52.37;;;;;;;;;;4323857;32;362891;-79
2024/01/14 03:28:17;;;;;;;103.77;54.30;;;;;;;;;;4333337;32;320402;-79
2024/01/14 03:30:45;;;;;;;94.13;52.93;;;;;;;;;;4334732;32;320306;-79
2024/01/14 03:33:15;;;;;;;99.40;52.90;;;;;;;;;;4316279;32;418349;-79
2024/01/14 03:35:42;;;;;;;86.33;42.87;;;;;;;;;;4332414;32;319262;-79
2024/01/14 03:38:09;;;;;;;97.23;44.80;;;;;;;;;;4323178;32;319805;-79
2024/01/14 03:40:38;;;;;;;89.10;45.30;;;;;;;;;;4326583;32;319159;-79
2024/01/14 03:43:07;;;;;;;71.97;40.63;;;;;;;;;;4316812;32;318854;-79
2024/01/14 03:45:34;;;;;;;95.57;46.40;;;;;;;;;;4329435;32;318472;-79
2024/01/14 03:48:01;;;;;;;86.33;45.80;;;;;;;;;;4310425;32;319243;-79
2024/01/14 03:50:30;;;;;;;93.73;48.70;;;;;;;;;;4332919;32;318460;-79
2024/01/14 03:52:57;;;;;;;98.80;50.97;;;;;;;;;;4318193;32;319453;-79
2024/01/14 03:55:25;;;;;;;94.43;47.40;;;;;;;;;;4347511;32;319419;-79
2024/01/14 03:57:54;;;;;;;95.50;45.23;;;;;;;;;;4337166;32;318559;-79
2024/01/14 04:00:21;;;;;;;75.20;41.40;;;;;;;;;;4346358;32;319312;-79
2024/01/14 04:02:47;;;;;;;77.03;41.27;;;;;;;;;;4336561;32;319313;-79
2024/01/14 04:05:15;;;;;;;60.97;36.30;;;;;;;;;;4340010;32;319331;-78
2024/01/14 04:07:46;;;;;;;69.33;39.80;;;;;;;;;;4332982;32;318562;-79
2024/01/14 04:10:13;;;;;;;78.27;41.93;;;;;;;;;;4319732;32;418327;-79
2024/01/14 04:12:40;;;;;;;88.77;47.33;;;;;;;;;;4333085;32;318840;-79
2024/01/14 04:15:09;;;;;;;76.27;41.63;;;;;;;;;;4316394;32;319132;-79
2024/01/14 04:17:36;;;;;;;73.40;37.20;;;;;;;;;;4357497;32;319386;-78
2024/01/14 04:20:05;;;;;;;79.47;45.00;;;;;;;;;;4322738;32;319201;-79
2024/01/14 04:22:33;;;;;;;94.83;48.83;;;;;;;;;;4332585;32;319468;-79
2024/01/14 04:25:04;;;;;;;84.63;46.07;;;;;;;;;;4317762;32;318593;-79
2024/01/14 04:27:30;;;;;;;89.60;50.23;;;;;;;;;;4331262;32;319147;-78
2024/01/14 04:29:57;;;;;;;101.20;50.43;;;;;;;;;;4322836;32;318725;-79
2024/01/14 04:32:25;;;;;;;90.17;49.00;;;;;;;;;;4332906;32;319389;-79
2024/01/14 04:34:55;;;;;;;112.17;52.90;;;;;;;;;;4322024;32;319217;-79
2024/01/14 04:37:23;;;;;;;120.10;61.53;;;;;;;;;;4330795;32;320357;-79
2024/01/14 04:39:52;;;;;;;168.90;79.07;;;;;;;;;;4321687;32;319801;-79
2024/01/14 04:42:21;;;;;;;124.60;66.17;;;;;;;;;;4330927;32;320584;-79
2024/01/14 04:44:48;;;;;;;125.83;67.67;;;;;;;;;;4322288;32;319426;-79
2024/01/14 04:47:14;;;;;;;136.60;68.47;;;;;;;;;;4324391;32;320564;-79
2024/01/14 04:49:44;;;;;;;139.77;72.17;;;;;;;;;;4331913;32;318727;-79
2024/01/14 04:52:10;;;;;;;163.70;79.10;;;;;;;;;;4383612;32;360397;-79
2024/01/14 04:54:37;;;;;;;143.67;73.97;;;;;;;;;;4360676;32;318406;-79
2024/01/14 04:57:04;;;;;;;160.13;77.23;;;;;;;;;;4315501;32;319757;-79
2024/01/14 04:59:33;;;;;;;132.23;67.27;;;;;;;;;;4333111;32;320401;-79
2024/01/14 05:02:00;;;;;;;128.47;66.80;;;;;;;;;;4322974;32;320375;-79
2024/01/14 05:04:27;;;;;;;136.47;65.40;;;;;;;;;;4332828;32;318757;-79
2024/01/14 05:06:54;;;;;;;102.33;55.20;;;;;;;;;;4316937;32;320315;-80
2024/01/14 05:09:24;;;;;;;124.93;61.47;;;;;;;;;;4331032;32;318680;-80
2024/01/14 05:11:53;;;;;;;131.23;64.07;;;;;;;;;;4322868;32;319592;-80
2024/01/14 05:14:22;;;;;;;110.07;60.37;;;;;;;;;;4332804;32;319555;-79
2024/01/14 05:16:50;;;;;;;102.50;53.43;;;;;;;;;;4320420;32;320165;-79
2024/01/14 05:19:17;;;;;;;108.97;54.10;;;;;;;;;;4329153;32;318715;-79
2024/01/14 05:21:44;;;;;;;108.50;55.83;;;;;;;;;;4333403;32;319729;-79
2024/01/14 05:24:13;;;;;;;121.77;62.50;;;;;;;;;;4321222;32;421099;-80
2024/01/14 05:26:41;;;;;;;142.57;69.57;;;;;;;;;;4338806;32;319630;-80
2024/01/14 05:29:07;;;;;;;140.87;72.80;;;;;;;;;;4319677;32;320233;-80
2024/01/14 05:31:37;;;;;;;146.90;75.37;;;;;;;;;;4331463;32;318420;-80
2024/01/14 05:34:05;;;;;;;144.13;72.50;;;;;;;;;;4328322;32;319860;-80
2024/01/14 05:36:34;;;;;;;131.70;65.40;;;;;;;;;;4335838;32;320301;-79
2024/01/14 05:39:00;;;;;;;120.90;62.23;;;;;;;;;;4320553;32;330456;-81
2024/01/14 05:41:27;;;;;;;130.40;64.23;;;;;;;;;;4334493;32;318954;-80
2024/01/14 05:43:54;;;;;;;128.07;67.20;;;;;;;;;;4321393;32;320417;-79
2024/01/14 05:46:21;;;;;;;130.07;67.13;;;;;;;;;;4332286;32;320068;-79
2024/01/14 05:48:47;;;;;;;121.13;66.37;;;;;;;;;;4324078;32;334832;-79
2024/01/14 05:51:17;;;;;;;124.33;67.13;;;;;;;;;;4361852;32;320334;-78
2024/01/14 05:53:45;;;;;;;143.30;67.93;;;;;;;;;;4351040;32;344855;-80
2024/01/14 05:56:12;;;;;;;114.27;58.93;;;;;;;;;;4336547;32;420532;-79
2024/01/14 05:58:44;;;;;;;87.57;46.30;;;;;;;;;;4347535;32;320484;-79
2024/01/14 06:01:14;;;;;;;83.77;48.33;;;;;;;;;;4321566;32;390813;-80
2024/01/14 06:03:41;;;;;;;89.27;46.77;;;;;;;;;;4333682;33;317869;-79
2024/01/14 06:06:09;;;;;;;91.20;47.13;;;;;;;;;;4322951;32;327936;-79
2024/01/14 06:08:38;;;;;;;94.93;53.27;;;;;;;;;;4333060;32;318600;-79
2024/01/14 06:11:06;;;;;;;114.17;58.70;;;;;;;;;;4316854;32;317371;-79
2024/01/14 06:13:34;;;;;;;139.50;67.47;;;;;;;;;;4332150;32;320521;-79
2024/01/14 06:16:04;;;;;;;129.33;67.63;;;;;;;;;;4323102;32;319507;-79
2024/01/14 06:18:33;;;;;;;127.83;65.90;;;;;;;;;;4349072;32;320541;-81
2024/01/14 06:21:01;;;;;;;131.97;68.00;;;;;;;;;;4330391;32;319577;-79
2024/01/14 06:23:29;;;;;;;139.00;74.40;;;;;;;;;;4345105;32;319565;-79
2024/01/14 06:25:57;;;;;;;132.33;69.07;;;;;;;;;;4324676;32;319809;-79
2024/01/14 06:28:25;;;;;;;123.13;63.87;;;;;;;;;;4333136;32;319828;-79
2024/01/14 06:30:53;;;;;;;118.60;67.07;;;;;;;;;;4323462;32;319959;-81
2024/01/14 06:33:20;;;;;;;139.63;74.63;;;;;;;;;;4330031;32;349143;-80
2024/01/14 06:35:46;;;;;;;243.70;122.83;;;;;;;;;;4344642;32;320549;-79
2024/01/14 06:38:13;;;;;;;163.23;84.90;;;;;;;;;;4335528;32;419082;-79
2024/01/14 06:40:40;;;;;;;166.60;88.03;;;;;;;;;;4348814;32;318642;-79
2024/01/14 06:43:09;;;;;;;156.77;81.53;;;;;;;;;;4314204;32;320268;-79
2024/01/14 06:45:37;;;;;;;168.33;85.67;;;;;;;;;;4348736;32;331145;-80
2024/01/14 06:48:06;;;;;;;162.43;85.60;;;;;;;;;;4336581;32;319688;-79
2024/01/14 06:50:32;;;;;;;200.33;93.07;;;;;;;;;;4336552;32;332794;-79
2024/01/14 06:53:01;;;;;;;172.50;93.20;;;;;;;;;;4348256;32;319860;-80
2024/01/14 06:55:29;;;;;;;166.60;91.70;;;;;;;;;;4346342;32;320382;-80
2024/01/14 06:57:56;;;;;;;166.00;92.70;;;;;;;;;;4390218;32;319251;-80
2024/01/14 07:00:24;;;;;;;189.70;94.20;;;;;;;;;;4402260;32;320334;-80
2024/01/14 07:02:52;;;;;;;175.43;94.07;;;;;;;;;;4411169;32;318856;-80
2024/01/14 07:05:20;;;;;;;175.77;91.63;;;;;;;;;;4395458;32;338407;-80
2024/01/14 07:07:48;;;;;;;155.57;83.97;;;;;;;;;;4397134;32;319728;-80
2024/01/14 07:10:18;;;;;;;162.17;81.80;;;;;;;;;;4392732;32;319930;-81
2024/01/14 07:12:47;;;;;;;159.97;81.17;;;;;;;;;;4358513;32;320235;-81
2024/01/14 07:15:18;;;;;;;159.20;84.17;;;;;;;;;;4326819;32;319770;-82
2024/01/14 07:17:48;;;;;;;146.77;74.77;;;;;;;;;;4320446;32;420785;-80
2024/01/14 07:20:15;;;;;;;132.63;66.70;;;;;;;;;;4342431;32;320668;-80
2024/01/14 07:22:43;;;;;;;148.43;73.77;;;;;;;;;;4303132;32;419182;-80
2024/01/14 07:25:10;;;;;;;139.80;73.50;;;;;;;;;;4335439;32;327285;-80
2024/01/14 07:27:39;;;;;;;154.40;75.20;;;;;;;;;;4325764;32;320532;-80
2024/01/14 07:30:07;;;;;;;99.77;56.80;;;;;;;;;;4330495;32;319639;-81
2024/01/14 07:32:34;;;;;;;89.00;50.93;;;;;;;;;;4317617;32;326699;-81
2024/01/14 07:35:04;;;;;;;83.07;43.87;;;;;;;;;;4332081;32;319258;-80
2024/01/14 07:37:33;;;;;;;91.87;47.83;;;;;;;;;;4324613;32;319770;-81
2024/01/14 07:40:01;;;;;;;87.23;50.77;;;;;;;;;;4334740;32;319397;-80
2024/01/14 07:42:30;;;;;;;95.57;48.77;;;;;;;;;;4318879;32;319363;-80
2024/01/14 07:44:57;;;;;;;96.37;52.17;;;;;;;;;;4334949;32;318652;-80
2024/01/14 07:47:24;;;;;;;91.40;49.60;;;;;;;;;;4324653;32;319472;-80
2024/01/14 07:49:52;;;;;;;90.23;54.30;;;;;;;;;;4336437;32;345936;-81
2024/01/14 07:52:24;;;;;;;96.40;51.30;;;;;;;;;;4315969;32;373692;-80
2024/01/14 07:54:52;;;;;;;102.73;53.27;;;;;;;;;;4344953;32;319035;-80
2024/01/14 07:57:19;;;;;;;97.23;52.90;;;;;;;;;;4329689;32;320136;-80
2024/01/14 07:59:45;;;;;;;111.33;57.07;;;;;;;;;;4349675;32;319415;-80
2024/01/14 08:02:14;;;;;;;98.30;56.07;;;;;;;;;;4342912;32;319753;-79
2024/01/14 08:04:42;;;;;;;94.37;54.43;;;;;;;;;;4317823;32;417195;-80
2024/01/14 08:07:09;;;;;;;101.07;55.90;;;;;;;;;;4336304;32;319748;-82
2024/01/14 08:09:37;;;;;;;114.50;62.03;;;;;;;;;;4326321;32;320415;-79
2024/01/14 08:12:05;;;;;;;98.97;56.90;;;;;;;;;;4334424;32;320266;-79
2024/01/14 08:14:32;;;;;;;110.83;60.23;;;;;;;;;;4317951;32;318801;-79
2024/01/14 08:16:59;;;;;;;107.63;60.10;;;;;;;;;;4342581;32;320998;-80
2024/01/14 08:19:26;;;;;;;107.27;63.20;;;;;;;;;;4339223;32;320452;-80
2024/01/14 08:21:54;;;;;;;102.17;61.57;;;;;;;;;;4351495;32;318362;-80
2024/01/14 08:24:21;;;;;;;117.20;62.57;;;;;;;;;;4326936;32;318872;-80
2024/01/14 08:26:50;;;;;;;114.47;61.93;;;;;;;;;;4329581;32;318889;-80
2024/01/14 08:29:17;;;;;;;105.40;57.87;;;;;;;;;;4325710;32;318424;-80
2024/01/14 08:31:45;;;;;;;94.17;55.53;;;;;;;;;;4334021;32;319080;-79
2024/01/14 08:34:12;;;;;;;99.77;56.47;;;;;;;;;;4328105;32;317384;-79
2024/01/14 08:36:39;;;;;;;96.83;54.93;;;;;;;;;;4305232;32;319303;-80
2024/01/14 08:39:06;;;;;;;150.07;77.80;;;;;;;;;;4316077;32;319451;-80
2024/01/14 08:41:33;;;;;;;113.27;61.47;;;;;;;;;;4307046;32;320536;-80
2024/01/14 08:44:06;;;;;;;95.83;53.87;;;;;;;;;;4313791;32;319493;-81
2024/01/14 08:46:35;;;;;;;148.27;80.03;;;;;;;;;;4317167;32;318658;-81
2024/01/14 08:49:02;;;;;;;105.27;56.20;;;;;;;;;;4331374;32;320494;-80
2024/01/14 08:51:30;;;;;;;94.67;50.23;;;;;;;;;;4320805;32;348716;-81
2024/01/14 08:54:00;;;;;;;96.27;50.40;;;;;;;;;;4340518;32;318812;-80
2024/01/14 08:56:28;;;;;;;86.00;45.50;;;;;;;;;;4334136;32;329120;-79
2024/01/14 08:58:57;;;;;;;75.47;41.80;;;;;;;;;;4349310;32;319433;-78
2024/01/14 09:01:27;;;;;;;79.37;44.50;;;;;;;;;;4340812;32;319014;-79
2024/01/14 09:03:54;;;;;;;81.60;46.10;;;;;;;;;;4348407;32;319252;-79
2024/01/14 09:06:22;;;;;;;82.70;45.13;;;;;;;;;;4334762;32;350891;-80
2024/01/14 09:08:48;;;;;;;77.33;44.70;;;;;;;;;;4378699;32;318410;-80
2024/01/14 09:11:16;;;;;;;74.53;44.33;;;;;;;;;;4348032;32;319771;-80
2024/01/14 09:13:45;;;;;;;89.03;46.57;;;;;;;;;;4348862;32;320683;-80
2024/01/14 09:16:12;;;;;;;70.17;43.20;;;;;;;;;;4412019;32;318340;-80
2024/01/14 09:18:42;;;;;;;72.20;44.43;;;;;;;;;;4395672;32;319613;-80
2024/01/14 09:21:12;;;;;;;69.17;39.00;;;;;;;;;;4412244;32;319563;-80
2024/01/14 09:23:39;;;;;;;67.37;38.73;;;;;;;;;;4401652;32;319393;-79
2024/01/14 09:26:06;;;;;;;74.57;38.37;;;;;;;;;;4410081;32;319374;-79
2024/01/14 09:28:36;;;;;;;59.27;37.17;;;;;;;;;;4395749;32;327461;-79
2024/01/14 09:31:05;;;;;;;56.13;34.70;;;;;;;;;;4411332;32;318876;-80
2024/01/14 09:33:33;;;;;;;72.00;41.53;;;;;;;;;;4399383;32;318956;-80
2024/01/14 09:36:08;;;;;;;57.83;34.47;;;;;;;;;;4412180;32;318521;-79
2024/01/14 09:38:35;;;;;;;63.93;38.93;;;;;;;;;;4393943;32;326984;-78
2024/01/14 09:41:11;;;;;;;70.97;40.50;;;;;;;;;;4409690;32;354033;-78
2024/01/14 09:43:45;;;;;;;64.63;36.40;;;;;;;;;;4400971;32;331255;-80
2024/01/14 09:46:13;;;;;;;123.63;57.37;;;;;;;;;;4412085;32;319260;-80
2024/01/14 09:48:43;;;;;;;68.10;40.60;;;;;;;;;;4395300;32;320185;-81
2024/01/14 09:51:13;;;;;;;64.93;38.90;;;;;;;;;;4412022;32;319079;-80
2024/01/14 09:53:42;;;;;;;210.07;87.07;;;;;;;;;;4399776;32;319407;-80
2024/01/14 09:56:13;;;;;;;73.03;41.10;;;;;;;;;;4410876;32;319599;-80
2024/01/14 09:58:45;;;;;;;65.10;37.70;;;;;;;;;;4395658;32;318975;-80
2024/01/14 10:01:17;;;;;;;62.07;33.93;;;;;;;;;;4411548;32;319190;-79
2024/01/14 10:03:45;;;;;;;73.83;39.20;;;;;;;;;;4399360;32;419641;-80
2024/01/14 10:06:16;;;;;;;88.43;48.07;;;;;;;;;;4406805;32;318671;-79
2024/01/14 10:08:43;;;;;;;71.80;42.67;;;;;;;;;;4393856;32;417440;-80
2024/01/14 10:11:11;;;;;;;84.30;44.83;;;;;;;;;;4412884;32;317655;-80
2024/01/14 10:13:38;;;;;;;68.83;42.97;;;;;;;;;;4402125;32;318109;-80
2024/01/14 10:16:07;;;;;;;76.17;43.53;;;;;;;;;;4398749;32;317896;-80
2024/01/14 10:18:37;;;;;;;91.10;51.63;;;;;;;;;;4380704;32;318067;-79
2024/01/14 10:21:06;;;;;;;83.00;47.70;;;;;;;;;;4411447;32;317632;-80
2024/01/14 10:23:37;;;;;;;80.93;47.37;;;;;;;;;;4401644;32;317553;-82
2024/01/14 10:26:06;;;;;;;92.30;48.60;;;;;;;;;;4408282;32;318055;-80
2024/01/14 10:28:33;;;;;;;84.07;49.77;;;;;;;;;;4377834;32;317295;-80
2024/01/14 10:31:06;;;;;;;88.03;51.83;;;;;;;;;;4394046;32;317421;-80
2024/01/14 10:33:35;;;;;;;89.83;49.20;;;;;;;;;;4384612;32;318194;-80
2024/01/14 10:36:08;;;;;;;86.70;50.47;;;;;;;;;;4395535;32;316706;-82
2024/01/14 10:38:37;;;;;;;85.67;47.30;;;;;;;;;;4378838;32;317862;-80
2024/01/14 10:41:04;;;;;;;83.87;45.90;;;;;;;;;;4395995;32;317321;-80
2024/01/14 10:43:34;;;;;;;71.30;38.90;;;;;;;;;;4386690;32;318370;-80
2024/01/14 10:46:03;;;;;;;66.50;39.47;;;;;;;;;;4394538;32;351819;-79
2024/01/14 10:48:38;;;;;;;79.43;46.73;;;;;;;;;;4363191;32;317853;-80
2024/01/14 10:51:10;;;;;;;79.03;45.87;;;;;;;;;;4375337;32;353613;-80
2024/01/14 10:53:43;;;;;;;74.40;44.70;;;;;;;;;;4363283;32;317787;-80
2024/01/14 10:56:16;;;;;;;82.00;50.17;;;;;;;;;;4403916;32;316526;-80
2024/01/14 10:58:46;;;;;;;87.80;47.97;;;;;;;;;;4369940;32;417698;-80
2024/01/14 11:01:19;;;;;;;72.83;45.53;;;;;;;;;;4361673;32;354304;-80
2024/01/14 11:03:51;;;;;;;77.00;42.73;;;;;;;;;;4369495;32;417666;-80
2024/01/14 11:06:20;;;;;;;71.70;41.80;;;;;;;;;;4356217;32;317725;-80
2024/01/14 11:08:52;;;;;;;71.47;44.70;;;;;;;;;;4388109;32;317562;-80
2024/01/14 11:11:23;;;;;;;73.33;41.70;;;;;;;;;;4393257;32;317805;-80
2024/01/14 11:13:56;;;;;;;76.17;45.27;;;;;;;;;;4396420;32;317469;-80
2024/01/14 11:16:28;;;;;;;84.07;48.13;;;;;;;;;;4389746;32;316628;-81
2024/01/14 11:19:02;;;;;;;85.23;49.50;;;;;;;;;;4371885;32;317706;-80
2024/01/14 11:21:40;;;;;;;94.53;51.53;;;;;;;;;;4373901;32;318422;-78
2024/01/14 11:24:10;;;;;;;82.87;49.10;;;;;;;;;;4373809;32;317684;-78
2024/01/14 11:26:37;;;;;;;86.00;49.83;;;;;;;;;;4377110;32;316681;-78
2024/01/14 11:29:06;;;;;;;89.00;49.47;;;;;;;;;;4407976;32;317923;-79
2024/01/14 11:32:09;;;;;;;77.17;46.00;;;;;;;;;;4395131;32;352099;-79
2024/01/14 11:34:59;;;;;;;68.27;39.83;;;;;;;;;;4391475;32;317797;-79
2024/01/14 11:37:43;;;;;;;75.53;43.03;;;;;;;;;;4396877;32;317587;-79
2024/01/14 11:40:16;;;;;;;71.30;43.07;;;;;;;;;;4382237;32;317496;-79
2024/01/14 11:42:50;;;;;;;66.07;38.30;;;;;;;;;;4390551;32;419840;-78
2024/01/14 11:45:37;;;;;;;59.13;38.47;;;;;;;;;;4401360;32;317656;-81
2024/01/14 11:48:06;;;;;;;54.93;36.63;;;;;;;;;;4404589;32;316660;-80
2024/01/14 11:50:38;;;;;;;69.07;37.57;;;;;;;;;;4388877;32;316620;-78
2024/01/14 11:53:08;;;;;;;62.83;36.63;;;;;;;;;;4404720;32;317734;-78
2024/01/14 11:55:37;;;;;;;60.57;32.87;;;;;;;;;;4363334;32;317758;-78
2024/01/14 11:58:17;;;;;;;61.83;34.43;;;;;;;;;;4400386;32;316780;-77
2024/01/14 12:00:48;;;;;;;59.67;36.57;;;;;;;;;;4387147;32;417436;-76
2024/01/14 12:03:15;;;;;;;70.13;42.53;;;;;;;;;;4385811;32;317667;-76
2024/01/14 12:05:43;;;;;;;71.97;40.90;;;;;;;;;;4395265;32;416897;-77
2024/01/14 12:08:11;;;;;;;62.23;35.53;;;;;;;;;;4410218;32;317929;-82
2024/01/14 12:10:40;;;;;;;66.30;38.47;;;;;;;;;;4395097;32;317539;-80
2024/01/14 12:13:10;;;;;;;65.10;38.73;;;;;;;;;;4410975;32;317412;-80
2024/01/14 12:15:38;;;;;;;68.47;40.77;;;;;;;;;;4401614;32;345142;-80
2024/01/14 12:18:06;;;;;;;61.63;36.80;;;;;;;;;;4402329;32;351215;-80
2024/01/14 12:20:33;;;;;;;63.40;38.47;;;;;;;;;;4395115;32;318387;-79
2024/01/14 12:23:04;;;;;;;75.40;41.17;;;;;;;;;;4413580;32;316540;-80
2024/01/14 12:25:33;;;;;;;65.10;40.30;;;;;;;;;;4394604;32;317486;-80
2024/01/14 12:28:06;;;;;;;67.40;38.13;;;;;;;;;;4407304;32;316402;-80
2024/01/14 12:30:35;;;;;;;76.13;40.47;;;;;;;;;;4379904;32;353367;-82
2024/01/14 12:33:05;;;;;;;84.27;46.60;;;;;;;;;;4414571;32;316562;-80
2024/01/14 12:35:36;;;;;;;79.27;45.03;;;;;;;;;;4405241;32;316675;-79
2024/01/14 12:38:03;;;;;;;66.37;41.53;;;;;;;;;;4412534;32;355787;-80
2024/01/14 12:40:31;;;;;;;75.93;41.63;;;;;;;;;;4397092;32;317748;-81
2024/01/14 12:43:00;;;;;;;74.37;43.97;;;;;;;;;;4405340;32;317457;-81
2024/01/14 12:45:28;;;;;;;75.73;46.37;;;;;;;;;;4405805;32;316703;-82
2024/01/14 12:48:01;;;;;;;82.17;47.37;;;;;;;;;;4413905;32;317711;-81
2024/01/14 12:50:29;;;;;;;74.77;44.47;;;;;;;;;;4400188;32;318155;-81
2024/01/14 12:53:00;;;;;;;75.70;46.53;;;;;;;;;;4411675;32;316379;-83
2024/01/14 12:55:29;;;;;;;76.43;46.07;;;;;;;;;;4402831;32;324432;-81
2024/01/14 12:57:59;;;;;;;81.70;46.80;;;;;;;;;;4404125;32;317420;-83
2024/01/14 13:00:28;;;;;;;78.67;45.13;;;;;;;;;;4388090;32;317757;-77
2024/01/14 13:02:56;;;;;;;81.20;46.87;;;;;;;;;;4404850;32;317745;-76
2024/01/14 13:05:23;;;;;;;81.17;44.33;;;;;;;;;;4407735;32;316647;-80
2024/01/14 13:07:52;;;;;;;78.37;45.50;;;;;;;;;;4425404;32;316082;-80
2024/01/14 13:10:19;;;;;;;85.83;49.10;;;;;;;;;;4419787;32;315337;-79
2024/01/14 13:12:47;;;;;;;84.73;49.00;;;;;;;;;;4421955;32;316874;-80
2024/01/14 13:15:15;;;;;;;88.00;50.67;;;;;;;;;;4406359;32;317710;-80
2024/01/14 13:17:47;;;;;;;90.37;49.03;;;;;;;;;;4401142;32;418471;-80
2024/01/14 13:20:16;;;;;;;93.53;53.30;;;;;;;;;;4404219;32;318315;-80
2024/01/14 13:22:44;;;;;;;93.37;55.70;;;;;;;;;;4403885;32;318239;-80
2024/01/14 13:25:14;;;;;;;91.00;54.70;;;;;;;;;;4411161;32;318367;-80
2024/01/14 13:27:40;;;;;;;93.47;55.47;;;;;;;;;;4392769;32;318030;-80
2024/01/14 13:30:10;;;;;;;97.87;57.17;;;;;;;;;;4399247;32;318075;-80
2024/01/14 13:32:37;;;;;;;105.87;61.00;;;;;;;;;;4392300;32;323434;-80
2024/01/14 13:35:07;;;;;;;107.53;59.23;;;;;;;;;;4408146;32;319303;-81
2024/01/14 13:37:36;;;;;;;99.43;60.67;;;;;;;;;;4382156;32;319129;-79
2024/01/14 13:40:05;;;;;;;95.30;55.73;;;;;;;;;;4397109;32;327396;-80
2024/01/14 13:42:32;;;;;;;93.80;51.60;;;;;;;;;;4387431;32;318133;-80
2024/01/14 13:45:03;;;;;;;84.77;46.97;;;;;;;;;;4398154;32;318184;-80
2024/01/14 13:47:30;;;;;;;76.10;46.43;;;;;;;;;;4385397;32;317656;-80
2024/01/14 13:49:58;;;;;;;89.00;50.70;;;;;;;;;;4397288;32;318361;-80
2024/01/14 13:52:28;;;;;;;84.00;48.63;;;;;;;;;;4387957;32;318073;-79
2024/01/14 13:54:55;;;;;;;80.97;46.47;;;;;;;;;;4409893;32;318020;-79
2024/01/14 13:57:22;;;;;;;86.30;45.17;;;;;;;;;;4412757;32;318028;-80
2024/01/14 13:59:50;;;;;;;62.73;38.33;;;;;;;;;;4374184;32;417701;-80
2024/01/14 14:02:19;;;;;;;72.30;40.37;;;;;;;;;;4412384;32;318155;-80
2024/01/14 14:04:47;;;;;;;95.93;47.47;;;;;;;;;;4395280;32;318574;-80
2024/01/14 14:07:15;;;;;;;135.37;69.90;;;;;;;;;;4407365;32;318488;-80